sensor_id;sensor_type;location;lat;lon;timestamp;pressure;altitude;pressure_sealevel;temperature;humidity
59315;BME280;46521;50.160;20.802;2022-11-20T00:07:53;99494.17;;;-3.05;71.50
59315;BME280;46521;50.160;20.802;2022-11-20T00:17:55;99484.50;;;-3.17;71.42
59315;BME280;46521;50.160;20.802;2022-11-20T00:27:56;99490.83;;;-3.23;70.49
59315;BME280;46521;50.160;20.802;2022-11-20T00:37:57;99491.53;;;-3.35;70.74
59315;BME280;46521;50.160;20.802;2022-11-20T00:47:59;99480.91;;;-3.47;70.97
59315;BME280;46521;50.160;20.802;2022-11-20T00:58:00;99488.50;;;-3.59;71.28
59315;BME280;46521;50.160;20.802;2022-11-20T01:08:02;99473.89;;;-3.60;70.87
59315;BME280;46521;50.160;20.802;2022-11-20T01:18:03;99463.47;;;-3.59;70.75
59315;BME280;46521;50.160;20.802;2022-11-20T01:28:06;99479.34;;;-3.65;70.80
59315;BME280;46521;50.160;20.802;2022-11-20T01:38:07;99472.58;;;-3.68;71.33
59315;BME280;46521;50.160;20.802;2022-11-20T01:48:10;99459.16;;;-3.74;71.50
59315;BME280;46521;50.160;20.802;2022-11-20T01:58:12;99466.21;;;-3.78;71.43
59315;BME280;46521;50.160;20.802;2022-11-20T02:08:15;99459.16;;;-3.74;71.34
59315;BME280;46521;50.160;20.802;2022-11-20T02:18:18;99452.31;;;-3.75;71.17
59315;BME280;46521;50.160;20.802;2022-11-20T02:28:21;99460.30;;;-3.80;71.17
59315;BME280;46521;50.160;20.802;2022-11-20T02:38:23;99460.30;;;-3.80;71.35
59315;BME280;46521;50.160;20.802;2022-11-20T02:48:24;99467.39;;;-3.84;70.64
59315;BME280;46521;50.160;20.802;2022-11-20T02:58:26;99471.95;;;-3.89;70.70
59315;BME280;46521;50.160;20.802;2022-11-20T03:08:27;99463.45;;;-3.91;70.69
59315;BME280;46521;50.160;20.802;2022-11-20T03:18:29;99455.28;;;-3.99;71.14
59315;BME280;46521;50.160;20.802;2022-11-20T03:28:30;99441.08;;;-4.08;70.71
59315;BME280;46521;50.160;20.802;2022-11-20T03:38:32;99431.92;;;-4.13;70.93
59315;BME280;46521;50.160;20.802;2022-11-20T03:48:34;99428.56;;;-4.16;71.08
59315;BME280;46521;50.160;20.802;2022-11-20T03:58:37;99430.48;;;-4.19;70.80
59315;BME280;46521;50.160;20.802;2022-11-20T04:08:42;99420.98;;;-4.19;71.11
59315;BME280;46521;50.160;20.802;2022-11-20T04:18:44;99427.23;;;-4.23;71.04
59315;BME280;46521;50.160;20.802;2022-11-20T04:28:46;99426.22;;;-4.20;71.12
59315;BME280;46521;50.160;20.802;2022-11-20T04:38:56;99419.25;;;-4.18;71.12
59315;BME280;46521;50.160;20.802;2022-11-20T04:48:58;99405.06;;;-4.27;71.13
59315;BME280;46521;50.160;20.802;2022-11-20T04:59:01;99393.24;;;-4.31;71.14
59315;BME280;46521;50.160;20.802;2022-11-20T05:09:02;99397.71;;;-4.35;70.88
59315;BME280;46521;50.160;20.802;2022-11-20T05:19:04;99404.05;;;-4.40;70.81
59315;BME280;46521;50.160;20.802;2022-11-20T05:29:05;99422.20;;;-4.42;71.04
59315;BME280;46521;50.160;20.802;2022-11-20T05:39:07;99417.34;;;-4.48;71.06
59315;BME280;46521;50.160;20.802;2022-11-20T05:49:08;99406.81;;;-4.61;70.73
59315;BME280;46521;50.160;20.802;2022-11-20T05:59:10;99403.38;;;-4.61;71.24
59315;BME280;46521;50.160;20.802;2022-11-20T06:09:11;99397.01;;;-4.54;71.09
59315;BME280;46521;50.160;20.802;2022-11-20T06:19:13;99402.02;;;-4.51;71.00
59315;BME280;46521;50.160;20.802;2022-11-20T06:29:14;99385.98;;;-4.58;70.88
59315;BME280;46521;50.160;20.802;2022-11-20T06:39:16;99388.41;;;-4.55;71.22
59315;BME280;46521;50.160;20.802;2022-11-20T06:49:17;99393.17;;;-4.47;70.87
59315;BME280;46521;50.160;20.802;2022-11-20T06:59:19;99399.66;;;-4.22;71.07
59315;BME280;46521;50.160;20.802;2022-11-20T07:09:20;99380.59;;;-3.10;69.74
59315;BME280;46521;50.160;20.802;2022-11-20T07:19:21;99376.98;;;-1.36;68.56
59315;BME280;46521;50.160;20.802;2022-11-20T07:29:23;99372.66;;;-2.33;69.28
59315;BME280;46521;50.160;20.802;2022-11-20T07:39:24;99375.11;;;-2.75;70.37
59315;BME280;46521;50.160;20.802;2022-11-20T07:49:26;99393.53;;;-3.10;70.35
59315;BME280;46521;50.160;20.802;2022-11-20T07:59:27;99407.36;;;-3.41;71.32
59315;BME280;46521;50.160;20.802;2022-11-20T08:09:28;99409.79;;;-3.54;70.90
59315;BME280;46521;50.160;20.802;2022-11-20T08:19:30;99405.61;;;-3.56;71.77
59315;BME280;46521;50.160;20.802;2022-11-20T08:29:31;99399.62;;;-3.57;71.66
59315;BME280;46521;50.160;20.802;2022-11-20T08:39:33;99395.59;;;-3.47;71.74
59315;BME280;46521;50.160;20.802;2022-11-20T08:49:34;99385.47;;;-3.19;72.90
59315;BME280;46521;50.160;20.802;2022-11-20T08:59:36;99370.01;;;-2.91;73.16
59315;BME280;46521;50.160;20.802;2022-11-20T09:09:37;99366.44;;;-2.74;73.05
59315;BME280;46521;50.160;20.802;2022-11-20T09:19:39;99362.58;;;-2.52;73.13
59315;BME280;46521;50.160;20.802;2022-11-20T09:29:41;99337.03;;;-2.29;73.05
59315;BME280;46521;50.160;20.802;2022-11-20T09:39:42;99332.39;;;-2.10;73.11
59315;BME280;46521;50.160;20.802;2022-11-20T10:00:27;99326.73;;;-1.75;73.63
59315;BME280;46521;50.160;20.802;2022-11-20T10:10:34;99333.21;;;-1.68;72.96
59315;BME280;46521;50.160;20.802;2022-11-20T10:30:46;99344.67;;;-1.45;72.80
59315;BME280;46521;50.160;20.802;2022-11-20T10:40:58;99327.21;;;-1.55;73.87
59315;BME280;46521;50.160;20.802;2022-11-20T11:01:40;99321.21;;;-1.03;73.47
59315;BME280;46521;50.160;20.802;2022-11-20T11:11:42;99319.44;;;-1.02;73.08
59315;BME280;46521;50.160;20.802;2022-11-20T11:21:46;99312.16;;;-1.10;73.00
59315;BME280;46521;50.160;20.802;2022-11-20T11:31:48;99292.87;;;-0.93;73.37
59315;BME280;46521;50.160;20.802;2022-11-20T11:41:50;99277.61;;;-0.72;73.64
59315;BME280;46521;50.160;20.802;2022-11-20T12:02:19;99235.50;;;-0.51;73.33
59315;BME280;46521;50.160;20.802;2022-11-20T12:12:37;99226.31;;;-0.44;73.45
59315;BME280;46521;50.160;20.802;2022-11-20T12:23:00;99204.60;;;-0.43;73.66
59315;BME280;46521;50.160;20.802;2022-11-20T12:55:11;99229.06;;;-0.59;73.39
59315;BME280;46521;50.160;20.802;2022-11-20T13:05:18;99229.41;;;-0.76;74.06
59315;BME280;46521;50.160;20.802;2022-11-20T13:15:42;99217.77;;;-0.83;74.03
59315;BME280;46521;50.160;20.802;2022-11-20T13:25:46;99213.75;;;-0.87;73.93
59315;BME280;46521;50.160;20.802;2022-11-20T13:36:05;99209.80;;;-0.93;74.51
59315;BME280;46521;50.160;20.802;2022-11-20T13:46:08;99205.85;;;-0.86;74.27
59315;BME280;46521;50.160;20.802;2022-11-20T13:56:36;99189.74;;;-0.78;74.21
59315;BME280;46521;50.160;20.802;2022-11-20T14:06:43;99185.05;;;-0.73;73.93
59315;BME280;46521;50.160;20.802;2022-11-20T14:16:47;99175.48;;;-0.73;74.04
59315;BME280;46521;50.160;20.802;2022-11-20T14:26:50;99190.67;;;-0.79;73.94
59315;BME280;46521;50.160;20.802;2022-11-20T14:36:59;99178.61;;;-0.80;74.36
59315;BME280;46521;50.160;20.802;2022-11-20T14:47:02;99174.88;;;-0.76;74.54
59315;BME280;46521;50.160;20.802;2022-11-20T14:57:05;99182.45;;;-0.73;74.81
59315;BME280;46521;50.160;20.802;2022-11-20T15:07:06;99177.37;;;-0.75;74.38
59315;BME280;46521;50.160;20.802;2022-11-20T15:17:10;99172.20;;;-0.87;74.98
59315;BME280;46521;50.160;20.802;2022-11-20T15:27:12;99170.44;;;-0.87;75.46
59315;BME280;46521;50.160;20.802;2022-11-20T15:37:14;99162.03;;;-0.91;74.87
59315;BME280;46521;50.160;20.802;2022-11-20T15:47:15;99150.41;;;-0.98;74.60
59315;BME280;46521;50.160;20.802;2022-11-20T15:57:18;99151.89;;;-1.06;75.15
59315;BME280;46521;50.160;20.802;2022-11-20T16:07:20;99136.95;;;-1.16;74.74
59315;BME280;46521;50.160;20.802;2022-11-20T16:17:21;99116.63;;;-1.22;74.90
59315;BME280;46521;50.160;20.802;2022-11-20T16:27:42;99111.85;;;-1.28;75.23
59315;BME280;46521;50.160;20.802;2022-11-20T16:37:44;99111.67;;;-1.38;74.96
59315;BME280;46521;50.160;20.802;2022-11-20T16:47:45;99103.24;;;-1.41;74.93
59315;BME280;46521;50.160;20.802;2022-11-20T16:57:47;99110.63;;;-1.48;74.92
59315;BME280;46521;50.160;20.802;2022-11-20T17:07:48;99111.14;;;-1.56;75.46
59315;BME280;46521;50.160;20.802;2022-11-20T17:17:49;99116.64;;;-1.60;74.96
59315;BME280;46521;50.160;20.802;2022-11-20T17:27:53;99118.72;;;-1.66;75.38
59315;BME280;46521;50.160;20.802;2022-11-20T17:37:54;99114.77;;;-1.58;75.45
59315;BME280;46521;50.160;20.802;2022-11-20T17:47:56;99079.61;;;-1.50;75.29
59315;BME280;46521;50.160;20.802;2022-11-20T17:57:57;99080.75;;;-1.41;75.20
59315;BME280;46521;50.160;20.802;2022-11-20T18:08:02;99066.19;;;-1.31;75.90
59315;BME280;46521;50.160;20.802;2022-11-20T18:18:04;99053.61;;;-1.24;76.12
59315;BME280;46521;50.160;20.802;2022-11-20T18:28:05;99046.24;;;-1.17;75.55
59315;BME280;46521;50.160;20.802;2022-11-20T18:38:07;99043.22;;;-1.11;75.68
59315;BME280;46521;50.160;20.802;2022-11-20T18:48:08;99031.66;;;-1.07;76.25
59315;BME280;46521;50.160;20.802;2022-11-20T18:58:10;99033.33;;;-1.06;76.44
59315;BME280;46521;50.160;20.802;2022-11-20T19:08:11;99022.73;;;-1.03;76.04
59315;BME280;46521;50.160;20.802;2022-11-20T19:18:12;99008.61;;;-0.99;76.28
59315;BME280;46521;50.160;20.802;2022-11-20T19:28:15;99003.41;;;-0.99;76.06
59315;BME280;46521;50.160;20.802;2022-11-20T19:38:16;99005.38;;;-1.02;75.80
59315;BME280;46521;50.160;20.802;2022-11-20T19:48:18;99009.48;;;-1.11;76.57
59315;BME280;46521;50.160;20.802;2022-11-20T19:58:19;99017.17;;;-1.22;76.59
59315;BME280;46521;50.160;20.802;2022-11-20T20:08:21;98997.09;;;-1.32;76.61
59315;BME280;46521;50.160;20.802;2022-11-20T20:18:22;99003.92;;;-1.31;76.60
59315;BME280;46521;50.160;20.802;2022-11-20T20:28:24;99024.89;;;-1.34;76.44
59315;BME280;46521;50.160;20.802;2022-11-20T20:38:25;99026.17;;;-1.39;76.06
59315;BME280;46521;50.160;20.802;2022-11-20T20:48:27;99027.63;;;-1.48;76.53
59315;BME280;46521;50.160;20.802;2022-11-20T20:58:29;99028.88;;;-1.54;76.73
59315;BME280;46521;50.160;20.802;2022-11-20T21:08:31;99042.36;;;-1.61;76.80
59315;BME280;46521;50.160;20.802;2022-11-20T21:18:33;99044.95;;;-1.61;76.17
59315;BME280;46521;50.160;20.802;2022-11-20T21:28:35;99038.84;;;-1.60;77.09
59315;BME280;46521;50.160;20.802;2022-11-20T21:38:37;99008.77;;;-1.50;77.23
59315;BME280;46521;50.160;20.802;2022-11-20T21:48:40;99033.00;;;-1.38;77.29
59315;BME280;46521;50.160;20.802;2022-11-20T21:58:43;99044.41;;;-1.28;77.20
59315;BME280;46521;50.160;20.802;2022-11-20T22:08:45;99047.28;;;-1.20;76.93
59315;BME280;46521;50.160;20.802;2022-11-20T22:18:49;99034.09;;;-1.17;77.19
59315;BME280;46521;50.160;20.802;2022-11-20T22:28:52;99043.75;;;-1.19;77.30
59315;BME280;46521;50.160;20.802;2022-11-20T22:38:55;99037.44;;;-1.28;76.96
59315;BME280;46521;50.160;20.802;2022-11-20T22:49:02;99031.75;;;-1.33;76.66
59315;BME280;46521;50.160;20.802;2022-11-20T22:59:04;99031.75;;;-1.33;76.75
59315;BME280;46521;50.160;20.802;2022-11-20T23:09:07;99042.23;;;-1.34;76.79
59315;BME280;46521;50.160;20.802;2022-11-20T23:19:11;99026.77;;;-1.36;77.45
59315;BME280;46521;50.160;20.802;2022-11-20T23:29:14;99005.91;;;-1.34;76.82
59315;BME280;46521;50.160;20.802;2022-11-20T23:39:15;99005.81;;;-1.33;76.93
59315;BME280;46521;50.160;20.802;2022-11-20T23:59:47;99010.82;;;-1.42;77.44
